sensor_id;sensor_type;location;lat;lon;timestamp;P1;durP1;ratioP1;P2;durP2;ratioP2
3613;SDS011;1821;50.936;6.854;2024-03-22T00:00:20;20.88;;;14.27;;
3613;SDS011;1821;50.936;6.854;2024-03-22T00:01:01;21.75;;;14.90;;
3613;SDS011;1821;50.936;6.854;2024-03-22T00:01:43;22.15;;;14.25;;
3613;SDS011;1821;50.936;6.854;2024-03-22T00:02:24;21.77;;;13.32;;
3613;SDS011;1821;50.936;6.854;2024-03-22T00:03:05;20.95;;;14.35;;
3613;SDS011;1821;50.936;6.854;2024-03-22T00:03:47;22.45;;;15.30;;
3613;SDS011;1821;50.936;6.854;2024-03-22T00:04:28;23.40;;;15.48;;
3613;SDS011;1821;50.936;6.854;2024-03-22T00:05:10;21.90;;;14.82;;
3613;SDS011;1821;50.936;6.854;2024-03-22T00:05:51;21.60;;;14.95;;
3613;SDS011;1821;50.936;6.854;2024-03-22T00:06:32;21.70;;;14.82;;
3613;SDS011;1821;50.936;6.854;2024-03-22T00:07:13;21.77;;;15.60;;
3613;SDS011;1821;50.936;6.854;2024-03-22T00:07:55;23.60;;;15.80;;
3613;SDS011;1821;50.936;6.854;2024-03-22T00:08:36;22.15;;;14.63;;
3613;SDS011;1821;50.936;6.854;2024-03-22T00:09:17;20.90;;;14.65;;
3613;SDS011;1821;50.936;6.854;2024-03-22T00:09:59;23.38;;;14.88;;
3613;SDS011;1821;50.936;6.854;2024-03-22T00:10:40;21.42;;;14.30;;
3613;SDS011;1821;50.936;6.854;2024-03-22T00:11:21;22.08;;;14.40;;
3613;SDS011;1821;50.936;6.854;2024-03-22T00:12:02;24.25;;;15.32;;
3613;SDS011;1821;50.936;6.854;2024-03-22T00:12:44;21.58;;;14.70;;
3613;SDS011;1821;50.936;6.854;2024-03-22T00:13:25;23.27;;;14.50;;
3613;SDS011;1821;50.936;6.854;2024-03-22T00:14:07;25.42;;;15.40;;
3613;SDS011;1821;50.936;6.854;2024-03-22T00:14:48;27.52;;;15.27;;
3613;SDS011;1821;50.936;6.854;2024-03-22T00:15:31;23.33;;;13.73;;
3613;SDS011;1821;50.936;6.854;2024-03-22T00:16:13;21.67;;;13.13;;
3613;SDS011;1821;50.936;6.854;2024-03-22T00:16:54;21.17;;;13.65;;
3613;SDS011;1821;50.936;6.854;2024-03-22T00:17:35;22.63;;;14.20;;
3613;SDS011;1821;50.936;6.854;2024-03-22T00:18:16;24.13;;;14.43;;
3613;SDS011;1821;50.936;6.854;2024-03-22T00:18:57;22.25;;;14.27;;
3613;SDS011;1821;50.936;6.854;2024-03-22T00:19:39;19.05;;;12.73;;
3613;SDS011;1821;50.936;6.854;2024-03-22T00:20:20;20.88;;;13.93;;
3613;SDS011;1821;50.936;6.854;2024-03-22T00:21:01;22.33;;;14.20;;
3613;SDS011;1821;50.936;6.854;2024-03-22T00:21:43;21.15;;;13.38;;
3613;SDS011;1821;50.936;6.854;2024-03-22T00:22:24;20.77;;;13.65;;
3613;SDS011;1821;50.936;6.854;2024-03-22T00:23:05;20.13;;;13.68;;
3613;SDS011;1821;50.936;6.854;2024-03-22T00:23:47;19.58;;;13.27;;
3613;SDS011;1821;50.936;6.854;2024-03-22T00:24:28;23.08;;;13.80;;
3613;SDS011;1821;50.936;6.854;2024-03-22T00:25:09;21.80;;;13.93;;
3613;SDS011;1821;50.936;6.854;2024-03-22T00:25:51;19.50;;;13.32;;
3613;SDS011;1821;50.936;6.854;2024-03-22T00:26:32;19.50;;;12.30;;
3613;SDS011;1821;50.936;6.854;2024-03-22T00:27:13;19.30;;;12.50;;
3613;SDS011;1821;50.936;6.854;2024-03-22T00:27:55;18.58;;;13.40;;
3613;SDS011;1821;50.936;6.854;2024-03-22T00:28:36;21.67;;;13.05;;
3613;SDS011;1821;50.936;6.854;2024-03-22T00:29:17;19.48;;;12.63;;
3613;SDS011;1821;50.936;6.854;2024-03-22T00:29:59;18.90;;;12.68;;
3613;SDS011;1821;50.936;6.854;2024-03-22T00:30:41;18.35;;;12.90;;
3613;SDS011;1821;50.936;6.854;2024-03-22T00:31:22;18.10;;;12.65;;
3613;SDS011;1821;50.936;6.854;2024-03-22T00:32:04;20.27;;;13.10;;
3613;SDS011;1821;50.936;6.854;2024-03-22T00:32:47;21.65;;;13.35;;
3613;SDS011;1821;50.936;6.854;2024-03-22T00:33:28;18.98;;;12.73;;
3613;SDS011;1821;50.936;6.854;2024-03-22T00:34:10;17.42;;;11.95;;
3613;SDS011;1821;50.936;6.854;2024-03-22T00:34:51;18.55;;;13.07;;
3613;SDS011;1821;50.936;6.854;2024-03-22T00:35:33;19.85;;;12.55;;
3613;SDS011;1821;50.936;6.854;2024-03-22T00:36:14;22.92;;;14.05;;
3613;SDS011;1821;50.936;6.854;2024-03-22T00:36:55;22.00;;;13.65;;
3613;SDS011;1821;50.936;6.854;2024-03-22T00:37:37;19.35;;;13.65;;
3613;SDS011;1821;50.936;6.854;2024-03-22T00:38:18;20.73;;;13.43;;
3613;SDS011;1821;50.936;6.854;2024-03-22T00:38:59;20.90;;;13.07;;
3613;SDS011;1821;50.936;6.854;2024-03-22T00:39:41;18.27;;;13.15;;
3613;SDS011;1821;50.936;6.854;2024-03-22T00:40:22;18.50;;;13.07;;
3613;SDS011;1821;50.936;6.854;2024-03-22T00:41:03;19.30;;;13.60;;
3613;SDS011;1821;50.936;6.854;2024-03-22T00:41:45;19.00;;;12.90;;
3613;SDS011;1821;50.936;6.854;2024-03-22T00:42:26;17.58;;;12.52;;
3613;SDS011;1821;50.936;6.854;2024-03-22T00:43:07;16.85;;;12.05;;
3613;SDS011;1821;50.936;6.854;2024-03-22T00:43:49;20.00;;;13.93;;
3613;SDS011;1821;50.936;6.854;2024-03-22T00:44:30;20.30;;;13.48;;
3613;SDS011;1821;50.936;6.854;2024-03-22T00:45:11;18.58;;;11.95;;
3613;SDS011;1821;50.936;6.854;2024-03-22T00:45:53;19.52;;;12.10;;
3613;SDS011;1821;50.936;6.854;2024-03-22T00:46:34;21.58;;;14.02;;
3613;SDS011;1821;50.936;6.854;2024-03-22T00:47:16;22.90;;;13.90;;
3613;SDS011;1821;50.936;6.854;2024-03-22T00:47:58;19.77;;;13.15;;
3613;SDS011;1821;50.936;6.854;2024-03-22T00:48:39;18.35;;;12.68;;
3613;SDS011;1821;50.936;6.854;2024-03-22T00:49:20;20.55;;;13.50;;
3613;SDS011;1821;50.936;6.854;2024-03-22T00:50:01;19.08;;;12.88;;
3613;SDS011;1821;50.936;6.854;2024-03-22T00:50:43;20.80;;;13.48;;
3613;SDS011;1821;50.936;6.854;2024-03-22T00:51:27;21.75;;;13.82;;
3613;SDS011;1821;50.936;6.854;2024-03-22T00:52:08;19.60;;;13.52;;
3613;SDS011;1821;50.936;6.854;2024-03-22T00:52:50;18.98;;;13.65;;
3613;SDS011;1821;50.936;6.854;2024-03-22T00:53:36;17.40;;;12.10;;
3613;SDS011;1821;50.936;6.854;2024-03-22T00:54:17;19.25;;;13.43;;
3613;SDS011;1821;50.936;6.854;2024-03-22T00:54:59;21.88;;;13.95;;
3613;SDS011;1821;50.936;6.854;2024-03-22T00:55:40;21.45;;;14.20;;
3613;SDS011;1821;50.936;6.854;2024-03-22T00:56:22;18.27;;;12.63;;
3613;SDS011;1821;50.936;6.854;2024-03-22T00:57:03;16.98;;;12.30;;
3613;SDS011;1821;50.936;6.854;2024-03-22T00:57:45;17.58;;;12.23;;
3613;SDS011;1821;50.936;6.854;2024-03-22T00:58:27;19.77;;;12.90;;
3613;SDS011;1821;50.936;6.854;2024-03-22T00:59:08;18.90;;;12.07;;
3613;SDS011;1821;50.936;6.854;2024-03-22T00:59:50;18.27;;;12.00;;
3613;SDS011;1821;50.936;6.854;2024-03-22T01:00:31;19.42;;;12.98;;
3613;SDS011;1821;50.936;6.854;2024-03-22T01:01:12;21.55;;;13.75;;
3613;SDS011;1821;50.936;6.854;2024-03-22T01:01:54;20.77;;;13.70;;
3613;SDS011;1821;50.936;6.854;2024-03-22T01:02:35;19.13;;;13.02;;
3613;SDS011;1821;50.936;6.854;2024-03-22T01:03:16;19.50;;;13.52;;
3613;SDS011;1821;50.936;6.854;2024-03-22T01:03:58;17.90;;;12.30;;
3613;SDS011;1821;50.936;6.854;2024-03-22T01:04:39;18.90;;;12.32;;
3613;SDS011;1821;50.936;6.854;2024-03-22T01:05:21;21.95;;;12.80;;
3613;SDS011;1821;50.936;6.854;2024-03-22T01:06:02;18.85;;;13.05;;
3613;SDS011;1821;50.936;6.854;2024-03-22T01:06:43;18.65;;;12.77;;
3613;SDS011;1821;50.936;6.854;2024-03-22T01:07:25;20.35;;;13.20;;
3613;SDS011;1821;50.936;6.854;2024-03-22T01:08:06;17.98;;;12.57;;
3613;SDS011;1821;50.936;6.854;2024-03-22T01:08:47;18.45;;;12.30;;
3613;SDS011;1821;50.936;6.854;2024-03-22T01:09:29;19.23;;;12.55;;
3613;SDS011;1821;50.936;6.854;2024-03-22T01:10:11;18.75;;;12.77;;
3613;SDS011;1821;50.936;6.854;2024-03-22T01:10:52;19.25;;;13.68;;
3613;SDS011;1821;50.936;6.854;2024-03-22T01:11:34;18.35;;;12.30;;
3613;SDS011;1821;50.936;6.854;2024-03-22T01:12:15;19.35;;;12.30;;
3613;SDS011;1821;50.936;6.854;2024-03-22T01:12:57;18.48;;;12.40;;
3613;SDS011;1821;50.936;6.854;2024-03-22T01:13:38;21.00;;;12.20;;
3613;SDS011;1821;50.936;6.854;2024-03-22T01:14:19;23.20;;;13.00;;
3613;SDS011;1821;50.936;6.854;2024-03-22T01:15:04;22.08;;;13.80;;
3613;SDS011;1821;50.936;6.854;2024-03-22T01:15:45;18.95;;;12.80;;
3613;SDS011;1821;50.936;6.854;2024-03-22T01:16:27;19.77;;;12.52;;
3613;SDS011;1821;50.936;6.854;2024-03-22T01:17:08;17.45;;;11.55;;
3613;SDS011;1821;50.936;6.854;2024-03-22T01:17:50;19.23;;;12.25;;
3613;SDS011;1821;50.936;6.854;2024-03-22T01:18:31;19.17;;;12.38;;
3613;SDS011;1821;50.936;6.854;2024-03-22T01:19:12;20.27;;;12.15;;
3613;SDS011;1821;50.936;6.854;2024-03-22T01:19:54;20.92;;;12.52;;
3613;SDS011;1821;50.936;6.854;2024-03-22T01:20:35;19.33;;;12.00;;
3613;SDS011;1821;50.936;6.854;2024-03-22T01:21:16;20.88;;;12.27;;
3613;SDS011;1821;50.936;6.854;2024-03-22T01:21:57;20.15;;;13.52;;
3613;SDS011;1821;50.936;6.854;2024-03-22T01:22:39;19.70;;;11.57;;
3613;SDS011;1821;50.936;6.854;2024-03-22T01:23:20;20.73;;;12.25;;
3613;SDS011;1821;50.936;6.854;2024-03-22T01:24:01;18.73;;;12.23;;
3613;SDS011;1821;50.936;6.854;2024-03-22T01:24:43;20.33;;;13.15;;
3613;SDS011;1821;50.936;6.854;2024-03-22T01:25:25;20.52;;;12.88;;
3613;SDS011;1821;50.936;6.854;2024-03-22T01:26:06;20.45;;;13.15;;
3613;SDS011;1821;50.936;6.854;2024-03-22T01:26:48;23.33;;;13.50;;
3613;SDS011;1821;50.936;6.854;2024-03-22T01:27:29;25.67;;;14.00;;
3613;SDS011;1821;50.936;6.854;2024-03-22T01:28:10;24.92;;;13.20;;
3613;SDS011;1821;50.936;6.854;2024-03-22T01:28:52;20.95;;;13.02;;
3613;SDS011;1821;50.936;6.854;2024-03-22T01:29:33;18.70;;;12.02;;
3613;SDS011;1821;50.936;6.854;2024-03-22T01:30:15;16.92;;;11.25;;
3613;SDS011;1821;50.936;6.854;2024-03-22T01:30:57;18.25;;;12.75;;
3613;SDS011;1821;50.936;6.854;2024-03-22T01:31:38;20.60;;;13.43;;
3613;SDS011;1821;50.936;6.854;2024-03-22T01:32:19;19.95;;;12.48;;
3613;SDS011;1821;50.936;6.854;2024-03-22T01:33:01;18.95;;;12.38;;
3613;SDS011;1821;50.936;6.854;2024-03-22T01:33:42;18.42;;;12.50;;
3613;SDS011;1821;50.936;6.854;2024-03-22T01:34:23;17.40;;;12.70;;
3613;SDS011;1821;50.936;6.854;2024-03-22T01:35:07;18.65;;;11.63;;
3613;SDS011;1821;50.936;6.854;2024-03-22T01:35:49;19.13;;;12.13;;
3613;SDS011;1821;50.936;6.854;2024-03-22T01:36:30;18.45;;;11.60;;
3613;SDS011;1821;50.936;6.854;2024-03-22T01:37:12;17.88;;;11.65;;
3613;SDS011;1821;50.936;6.854;2024-03-22T01:37:53;18.95;;;12.00;;
3613;SDS011;1821;50.936;6.854;2024-03-22T01:38:34;17.13;;;11.65;;
3613;SDS011;1821;50.936;6.854;2024-03-22T01:39:15;17.05;;;11.30;;
3613;SDS011;1821;50.936;6.854;2024-03-22T01:39:57;16.90;;;11.18;;
3613;SDS011;1821;50.936;6.854;2024-03-22T01:40:38;14.90;;;10.60;;
3613;SDS011;1821;50.936;6.854;2024-03-22T01:41:20;17.05;;;10.60;;
3613;SDS011;1821;50.936;6.854;2024-03-22T01:42:01;16.02;;;10.75;;
3613;SDS011;1821;50.936;6.854;2024-03-22T01:42:42;18.73;;;11.25;;
3613;SDS011;1821;50.936;6.854;2024-03-22T01:43:23;16.40;;;10.90;;
3613;SDS011;1821;50.936;6.854;2024-03-22T01:44:05;16.42;;;11.27;;
3613;SDS011;1821;50.936;6.854;2024-03-22T01:44:46;18.33;;;10.73;;
3613;SDS011;1821;50.936;6.854;2024-03-22T01:45:27;15.20;;;10.10;;
3613;SDS011;1821;50.936;6.854;2024-03-22T01:46:13;17.38;;;10.80;;
3613;SDS011;1821;50.936;6.854;2024-03-22T01:46:54;16.58;;;11.38;;
3613;SDS011;1821;50.936;6.854;2024-03-22T01:47:35;21.83;;;12.50;;
3613;SDS011;1821;50.936;6.854;2024-03-22T01:48:16;18.73;;;11.25;;
3613;SDS011;1821;50.936;6.854;2024-03-22T01:48:58;13.73;;;10.43;;
3613;SDS011;1821;50.936;6.854;2024-03-22T01:49:39;18.50;;;11.18;;
3613;SDS011;1821;50.936;6.854;2024-03-22T01:50:21;17.15;;;11.20;;
3613;SDS011;1821;50.936;6.854;2024-03-22T01:51:02;17.10;;;11.23;;
3613;SDS011;1821;50.936;6.854;2024-03-22T01:51:44;16.55;;;11.45;;
3613;SDS011;1821;50.936;6.854;2024-03-22T01:52:26;15.02;;;10.98;;
3613;SDS011;1821;50.936;6.854;2024-03-22T01:53:07;17.38;;;11.50;;
3613;SDS011;1821;50.936;6.854;2024-03-22T01:53:49;18.23;;;12.50;;
3613;SDS011;1821;50.936;6.854;2024-03-22T01:54:30;16.45;;;11.50;;
3613;SDS011;1821;50.936;6.854;2024-03-22T01:55:12;17.63;;;11.32;;
3613;SDS011;1821;50.936;6.854;2024-03-22T01:55:53;17.23;;;11.32;;
3613;SDS011;1821;50.936;6.854;2024-03-22T01:56:37;17.77;;;10.93;;
3613;SDS011;1821;50.936;6.854;2024-03-22T01:57:19;17.33;;;11.63;;
3613;SDS011;1821;50.936;6.854;2024-03-22T01:58:00;17.77;;;12.20;;
3613;SDS011;1821;50.936;6.854;2024-03-22T01:58:41;16.60;;;11.13;;
3613;SDS011;1821;50.936;6.854;2024-03-22T01:59:22;17.50;;;11.05;;
3613;SDS011;1821;50.936;6.854;2024-03-22T02:00:04;16.23;;;11.27;;
3613;SDS011;1821;50.936;6.854;2024-03-22T02:00:46;16.00;;;11.18;;
3613;SDS011;1821;50.936;6.854;2024-03-22T02:01:27;18.75;;;11.80;;
3613;SDS011;1821;50.936;6.854;2024-03-22T02:02:09;17.08;;;11.13;;
3613;SDS011;1821;50.936;6.854;2024-03-22T02:02:51;15.50;;;10.63;;
3613;SDS011;1821;50.936;6.854;2024-03-22T02:03:32;16.85;;;11.20;;
3613;SDS011;1821;50.936;6.854;2024-03-22T02:04:14;17.45;;;11.93;;
3613;SDS011;1821;50.936;6.854;2024-03-22T02:04:56;18.23;;;12.15;;
3613;SDS011;1821;50.936;6.854;2024-03-22T02:05:37;16.67;;;12.07;;
3613;SDS011;1821;50.936;6.854;2024-03-22T02:06:18;19.25;;;12.90;;
3613;SDS011;1821;50.936;6.854;2024-03-22T02:07:00;17.70;;;12.50;;
3613;SDS011;1821;50.936;6.854;2024-03-22T02:07:41;17.92;;;12.20;;
3613;SDS011;1821;50.936;6.854;2024-03-22T02:08:23;15.90;;;11.05;;
3613;SDS011;1821;50.936;6.854;2024-03-22T02:09:04;15.68;;;11.18;;
3613;SDS011;1821;50.936;6.854;2024-03-22T02:09:46;16.73;;;11.80;;
3613;SDS011;1821;50.936;6.854;2024-03-22T02:10:28;17.67;;;11.68;;
3613;SDS011;1821;50.936;6.854;2024-03-22T02:11:09;18.17;;;11.35;;
3613;SDS011;1821;50.936;6.854;2024-03-22T02:11:50;15.73;;;10.85;;
3613;SDS011;1821;50.936;6.854;2024-03-22T02:12:32;17.85;;;11.85;;
3613;SDS011;1821;50.936;6.854;2024-03-22T02:13:13;19.38;;;12.50;;
3613;SDS011;1821;50.936;6.854;2024-03-22T02:13:55;15.98;;;11.15;;
3613;SDS011;1821;50.936;6.854;2024-03-22T02:14:36;17.00;;;11.02;;
3613;SDS011;1821;50.936;6.854;2024-03-22T02:15:17;19.73;;;12.30;;
3613;SDS011;1821;50.936;6.854;2024-03-22T02:15:59;19.02;;;11.70;;
3613;SDS011;1821;50.936;6.854;2024-03-22T02:16:43;15.88;;;11.27;;
3613;SDS011;1821;50.936;6.854;2024-03-22T02:17:25;15.38;;;11.32;;
3613;SDS011;1821;50.936;6.854;2024-03-22T02:18:07;17.83;;;11.55;;
3613;SDS011;1821;50.936;6.854;2024-03-22T02:18:48;16.70;;;10.88;;
3613;SDS011;1821;50.936;6.854;2024-03-22T02:19:30;16.98;;;11.77;;
3613;SDS011;1821;50.936;6.854;2024-03-22T02:20:12;17.65;;;11.77;;
3613;SDS011;1821;50.936;6.854;2024-03-22T02:20:53;18.98;;;12.02;;
3613;SDS011;1821;50.936;6.854;2024-03-22T02:21:34;16.48;;;11.55;;
3613;SDS011;1821;50.936;6.854;2024-03-22T02:22:15;18.45;;;12.20;;
3613;SDS011;1821;50.936;6.854;2024-03-22T02:22:57;16.98;;;11.60;;
3613;SDS011;1821;50.936;6.854;2024-03-22T02:23:39;18.05;;;11.70;;
3613;SDS011;1821;50.936;6.854;2024-03-22T02:24:20;17.55;;;11.77;;
3613;SDS011;1821;50.936;6.854;2024-03-22T02:25:02;17.45;;;11.95;;
3613;SDS011;1821;50.936;6.854;2024-03-22T02:25:43;16.85;;;10.80;;
3613;SDS011;1821;50.936;6.854;2024-03-22T02:26:24;15.88;;;11.70;;
3613;SDS011;1821;50.936;6.854;2024-03-22T02:27:05;15.57;;;11.55;;
3613;SDS011;1821;50.936;6.854;2024-03-22T02:27:47;17.02;;;11.35;;
3613;SDS011;1821;50.936;6.854;2024-03-22T02:28:30;16.10;;;10.80;;
3613;SDS011;1821;50.936;6.854;2024-03-22T02:29:15;16.10;;;11.00;;
3613;SDS011;1821;50.936;6.854;2024-03-22T02:29:57;15.98;;;10.80;;
3613;SDS011;1821;50.936;6.854;2024-03-22T02:30:38;16.17;;;11.65;;
3613;SDS011;1821;50.936;6.854;2024-03-22T02:31:19;15.77;;;11.85;;
3613;SDS011;1821;50.936;6.854;2024-03-22T02:32:01;17.27;;;11.20;;
3613;SDS011;1821;50.936;6.854;2024-03-22T02:32:44;17.92;;;12.13;;
3613;SDS011;1821;50.936;6.854;2024-03-22T02:33:25;17.83;;;11.15;;
3613;SDS011;1821;50.936;6.854;2024-03-22T02:34:06;17.00;;;11.23;;
3613;SDS011;1821;50.936;6.854;2024-03-22T02:34:47;15.82;;;11.77;;
3613;SDS011;1821;50.936;6.854;2024-03-22T02:35:29;14.60;;;11.63;;
3613;SDS011;1821;50.936;6.854;2024-03-22T02:36:10;15.95;;;11.48;;
3613;SDS011;1821;50.936;6.854;2024-03-22T02:36:51;15.43;;;11.75;;
3613;SDS011;1821;50.936;6.854;2024-03-22T02:37:33;19.23;;;12.55;;
3613;SDS011;1821;50.936;6.854;2024-03-22T02:38:15;18.95;;;12.50;;
3613;SDS011;1821;50.936;6.854;2024-03-22T02:38:56;17.85;;;11.32;;
3613;SDS011;1821;50.936;6.854;2024-03-22T02:39:37;19.73;;;11.15;;
3613;SDS011;1821;50.936;6.854;2024-03-22T02:40:19;17.85;;;11.23;;
3613;SDS011;1821;50.936;6.854;2024-03-22T02:41:00;16.48;;;10.90;;
3613;SDS011;1821;50.936;6.854;2024-03-22T02:41:41;16.88;;;11.57;;
3613;SDS011;1821;50.936;6.854;2024-03-22T02:42:23;17.05;;;11.05;;
3613;SDS011;1821;50.936;6.854;2024-03-22T02:43:04;18.00;;;11.98;;
3613;SDS011;1821;50.936;6.854;2024-03-22T02:43:45;15.35;;;10.98;;
3613;SDS011;1821;50.936;6.854;2024-03-22T02:44:27;16.80;;;11.00;;
3613;SDS011;1821;50.936;6.854;2024-03-22T02:45:08;16.08;;;11.07;;
3613;SDS011;1821;50.936;6.854;2024-03-22T02:45:50;16.63;;;10.43;;
3613;SDS011;1821;50.936;6.854;2024-03-22T02:46:31;19.98;;;10.80;;
3613;SDS011;1821;50.936;6.854;2024-03-22T02:47:13;17.40;;;10.73;;
3613;SDS011;1821;50.936;6.854;2024-03-22T02:47:56;15.95;;;10.20;;
3613;SDS011;1821;50.936;6.854;2024-03-22T02:48:37;16.80;;;10.63;;
3613;SDS011;1821;50.936;6.854;2024-03-22T02:49:18;18.02;;;11.43;;
3613;SDS011;1821;50.936;6.854;2024-03-22T02:50:00;18.45;;;11.63;;
3613;SDS011;1821;50.936;6.854;2024-03-22T02:50:41;17.67;;;11.65;;
3613;SDS011;1821;50.936;6.854;2024-03-22T02:51:22;16.05;;;11.77;;
3613;SDS011;1821;50.936;6.854;2024-03-22T02:52:04;16.65;;;11.18;;
3613;SDS011;1821;50.936;6.854;2024-03-22T02:52:45;17.02;;;12.07;;
3613;SDS011;1821;50.936;6.854;2024-03-22T02:53:27;17.60;;;12.30;;
3613;SDS011;1821;50.936;6.854;2024-03-22T02:54:08;16.02;;;11.48;;
3613;SDS011;1821;50.936;6.854;2024-03-22T02:54:50;16.25;;;11.07;;
3613;SDS011;1821;50.936;6.854;2024-03-22T02:55:38;20.80;;;11.05;;
3613;SDS011;1821;50.936;6.854;2024-03-22T02:56:19;22.10;;;12.00;;
3613;SDS011;1821;50.936;6.854;2024-03-22T02:57:01;18.90;;;11.38;;
3613;SDS011;1821;50.936;6.854;2024-03-22T02:57:42;17.58;;;11.15;;
3613;SDS011;1821;50.936;6.854;2024-03-22T02:58:23;18.33;;;12.05;;
3613;SDS011;1821;50.936;6.854;2024-03-22T02:59:05;18.70;;;11.70;;
3613;SDS011;1821;50.936;6.854;2024-03-22T02:59:46;17.33;;;11.23;;
3613;SDS011;1821;50.936;6.854;2024-03-22T03:00:28;15.85;;;10.55;;
3613;SDS011;1821;50.936;6.854;2024-03-22T03:01:09;18.40;;;10.90;;
3613;SDS011;1821;50.936;6.854;2024-03-22T03:01:54;18.48;;;11.43;;
3613;SDS011;1821;50.936;6.854;2024-03-22T03:02:35;16.30;;;10.68;;
3613;SDS011;1821;50.936;6.854;2024-03-22T03:03:16;16.40;;;10.77;;
3613;SDS011;1821;50.936;6.854;2024-03-22T03:03:58;18.75;;;11.10;;
3613;SDS011;1821;50.936;6.854;2024-03-22T03:04:39;16.48;;;10.90;;
3613;SDS011;1821;50.936;6.854;2024-03-22T03:05:20;17.15;;;11.38;;
3613;SDS011;1821;50.936;6.854;2024-03-22T03:06:03;17.15;;;10.50;;
3613;SDS011;1821;50.936;6.854;2024-03-22T03:06:45;15.65;;;10.40;;
3613;SDS011;1821;50.936;6.854;2024-03-22T03:07:27;16.58;;;11.32;;
3613;SDS011;1821;50.936;6.854;2024-03-22T03:08:08;15.52;;;11.07;;
3613;SDS011;1821;50.936;6.854;2024-03-22T03:08:50;15.95;;;11.50;;
3613;SDS011;1821;50.936;6.854;2024-03-22T03:09:31;15.00;;;10.27;;
3613;SDS011;1821;50.936;6.854;2024-03-22T03:10:12;18.80;;;10.82;;
3613;SDS011;1821;50.936;6.854;2024-03-22T03:10:54;18.92;;;11.05;;
3613;SDS011;1821;50.936;6.854;2024-03-22T03:11:39;18.00;;;11.57;;
3613;SDS011;1821;50.936;6.854;2024-03-22T03:12:20;16.77;;;11.73;;
3613;SDS011;1821;50.936;6.854;2024-03-22T03:13:01;16.67;;;11.57;;
3613;SDS011;1821;50.936;6.854;2024-03-22T03:13:43;15.77;;;11.35;;
3613;SDS011;1821;50.936;6.854;2024-03-22T03:14:24;16.17;;;11.20;;
3613;SDS011;1821;50.936;6.854;2024-03-22T03:15:05;18.77;;;11.63;;
3613;SDS011;1821;50.936;6.854;2024-03-22T03:15:47;15.85;;;10.75;;
3613;SDS011;1821;50.936;6.854;2024-03-22T03:16:29;17.02;;;10.85;;
3613;SDS011;1821;50.936;6.854;2024-03-22T03:17:11;18.70;;;11.60;;
3613;SDS011;1821;50.936;6.854;2024-03-22T03:17:52;19.92;;;12.07;;
3613;SDS011;1821;50.936;6.854;2024-03-22T03:18:33;17.40;;;11.52;;
3613;SDS011;1821;50.936;6.854;2024-03-22T03:19:15;14.68;;;11.02;;
3613;SDS011;1821;50.936;6.854;2024-03-22T03:19:56;19.00;;;11.45;;
3613;SDS011;1821;50.936;6.854;2024-03-22T03:20:38;18.60;;;11.70;;
3613;SDS011;1821;50.936;6.854;2024-03-22T03:21:19;18.13;;;11.73;;
3613;SDS011;1821;50.936;6.854;2024-03-22T03:22:01;16.85;;;11.00;;
3613;SDS011;1821;50.936;6.854;2024-03-22T03:22:42;16.48;;;10.80;;
3613;SDS011;1821;50.936;6.854;2024-03-22T03:23:23;14.63;;;10.80;;
3613;SDS011;1821;50.936;6.854;2024-03-22T03:24:05;14.60;;;11.05;;
3613;SDS011;1821;50.936;6.854;2024-03-22T03:24:46;15.55;;;12.85;;
3613;SDS011;1821;50.936;6.854;2024-03-22T03:25:28;17.77;;;13.30;;
3613;SDS011;1821;50.936;6.854;2024-03-22T03:26:09;15.85;;;11.10;;
3613;SDS011;1821;50.936;6.854;2024-03-22T03:26:50;16.65;;;11.05;;
3613;SDS011;1821;50.936;6.854;2024-03-22T03:27:32;18.85;;;12.30;;
3613;SDS011;1821;50.936;6.854;2024-03-22T03:28:13;15.80;;;11.38;;
3613;SDS011;1821;50.936;6.854;2024-03-22T03:28:55;18.65;;;12.32;;
3613;SDS011;1821;50.936;6.854;2024-03-22T03:29:36;17.73;;;12.25;;
3613;SDS011;1821;50.936;6.854;2024-03-22T03:30:17;15.60;;;12.32;;
3613;SDS011;1821;50.936;6.854;2024-03-22T03:30:59;18.05;;;11.60;;
3613;SDS011;1821;50.936;6.854;2024-03-22T03:31:40;18.33;;;11.40;;
3613;SDS011;1821;50.936;6.854;2024-03-22T03:32:21;16.40;;;11.18;;
3613;SDS011;1821;50.936;6.854;2024-03-22T03:33:02;18.38;;;11.38;;
3613;SDS011;1821;50.936;6.854;2024-03-22T03:33:44;19.98;;;11.88;;
3613;SDS011;1821;50.936;6.854;2024-03-22T03:34:25;18.80;;;12.40;;
3613;SDS011;1821;50.936;6.854;2024-03-22T03:35:07;15.35;;;11.70;;
3613;SDS011;1821;50.936;6.854;2024-03-22T03:35:48;16.27;;;11.70;;
3613;SDS011;1821;50.936;6.854;2024-03-22T03:36:29;18.00;;;12.70;;
3613;SDS011;1821;50.936;6.854;2024-03-22T03:37:11;15.73;;;11.80;;
3613;SDS011;1821;50.936;6.854;2024-03-22T03:37:52;19.55;;;11.65;;
3613;SDS011;1821;50.936;6.854;2024-03-22T03:38:34;14.45;;;10.70;;
3613;SDS011;1821;50.936;6.854;2024-03-22T03:39:17;14.60;;;11.30;;
3613;SDS011;1821;50.936;6.854;2024-03-22T03:39:58;15.07;;;11.48;;
3613;SDS011;1821;50.936;6.854;2024-03-22T03:40:40;16.25;;;11.55;;
3613;SDS011;1821;50.936;6.854;2024-03-22T03:41:21;16.35;;;12.10;;
3613;SDS011;1821;50.936;6.854;2024-03-22T03:42:02;15.88;;;11.80;;
3613;SDS011;1821;50.936;6.854;2024-03-22T03:42:44;15.77;;;11.27;;
3613;SDS011;1821;50.936;6.854;2024-03-22T03:43:25;17.45;;;12.02;;
3613;SDS011;1821;50.936;6.854;2024-03-22T03:44:06;16.65;;;12.02;;
3613;SDS011;1821;50.936;6.854;2024-03-22T03:44:48;16.35;;;12.02;;
3613;SDS011;1821;50.936;6.854;2024-03-22T03:45:29;17.37;;;11.80;;
3613;SDS011;1821;50.936;6.854;2024-03-22T03:46:11;21.38;;;12.23;;
3613;SDS011;1821;50.936;6.854;2024-03-22T03:46:52;16.88;;;11.57;;
3613;SDS011;1821;50.936;6.854;2024-03-22T03:47:33;16.85;;;11.93;;
3613;SDS011;1821;50.936;6.854;2024-03-22T03:48:15;16.45;;;11.52;;
3613;SDS011;1821;50.936;6.854;2024-03-22T03:48:56;16.77;;;12.20;;
3613;SDS011;1821;50.936;6.854;2024-03-22T03:49:37;16.15;;;11.70;;
3613;SDS011;1821;50.936;6.854;2024-03-22T03:50:19;14.50;;;11.45;;
3613;SDS011;1821;50.936;6.854;2024-03-22T03:51:00;15.18;;;10.85;;
3613;SDS011;1821;50.936;6.854;2024-03-22T03:51:43;15.35;;;11.10;;
3613;SDS011;1821;50.936;6.854;2024-03-22T03:52:25;16.95;;;11.70;;
3613;SDS011;1821;50.936;6.854;2024-03-22T03:53:06;17.15;;;11.95;;
3613;SDS011;1821;50.936;6.854;2024-03-22T03:53:47;20.75;;;12.50;;
3613;SDS011;1821;50.936;6.854;2024-03-22T03:54:28;17.65;;;11.80;;
3613;SDS011;1821;50.936;6.854;2024-03-22T03:55:10;15.35;;;10.93;;
3613;SDS011;1821;50.936;6.854;2024-03-22T03:55:51;16.30;;;11.82;;
3613;SDS011;1821;50.936;6.854;2024-03-22T03:56:36;16.48;;;11.57;;
3613;SDS011;1821;50.936;6.854;2024-03-22T03:57:17;16.20;;;11.50;;
3613;SDS011;1821;50.936;6.854;2024-03-22T03:57:58;16.77;;;11.75;;
3613;SDS011;1821;50.936;6.854;2024-03-22T03:58:39;18.45;;;11.80;;
3613;SDS011;1821;50.936;6.854;2024-03-22T03:59:21;15.27;;;11.18;;
3613;SDS011;1821;50.936;6.854;2024-03-22T04:00:02;16.27;;;11.70;;
3613;SDS011;1821;50.936;6.854;2024-03-22T04:00:44;15.73;;;10.65;;
3613;SDS011;1821;50.936;6.854;2024-03-22T04:01:25;15.77;;;11.38;;
3613;SDS011;1821;50.936;6.854;2024-03-22T04:02:06;17.00;;;11.60;;
3613;SDS011;1821;50.936;6.854;2024-03-22T04:02:51;17.17;;;12.00;;
3613;SDS011;1821;50.936;6.854;2024-03-22T04:03:32;18.13;;;12.60;;
3613;SDS011;1821;50.936;6.854;2024-03-22T04:04:13;17.20;;;11.82;;
3613;SDS011;1821;50.936;6.854;2024-03-22T04:04:54;14.38;;;10.82;;
3613;SDS011;1821;50.936;6.854;2024-03-22T04:05:36;15.32;;;11.50;;
3613;SDS011;1821;50.936;6.854;2024-03-22T04:06:17;14.55;;;11.30;;
3613;SDS011;1821;50.936;6.854;2024-03-22T04:06:58;14.90;;;11.02;;
3613;SDS011;1821;50.936;6.854;2024-03-22T04:07:40;15.48;;;11.93;;
3613;SDS011;1821;50.936;6.854;2024-03-22T04:08:23;17.80;;;12.57;;
3613;SDS011;1821;50.936;6.854;2024-03-22T04:09:04;17.55;;;11.93;;
3613;SDS011;1821;50.936;6.854;2024-03-22T04:09:46;14.25;;;11.43;;
3613;SDS011;1821;50.936;6.854;2024-03-22T04:10:27;15.73;;;11.98;;